Time;durP1;ratioP1;P1;durP2;ratioP2;P2;SDS_P1;SDS_P2;PMS_P1;PMS_P2;Temp;Humidity;BMP_temperature;BMP_pressure;BME280_temperature;BME280_humidity;BME280_pressure;Samples;Min_cycle;Max_cycle;Signal;HPM_P1;HPM_P2
2022/12/10 00:01:46;;;;;;;30.60;22.73;;;3.10;99.90;;;;;;5035718;28;20446;-59
2022/12/10 00:04:13;;;;;;;30.93;22.60;;;3.10;99.90;;;;;;5034669;28;20937;-58
2022/12/10 00:06:43;;;;;;;36.03;22.90;;;3.00;99.90;;;;;;5034846;28;20485;-58
2022/12/10 00:09:12;;;;;;;28.13;21.70;;;3.00;99.90;;;;;;5034921;28;20469;-59
2022/12/10 00:11:40;;;;;;;31.53;22.87;;;2.90;99.90;;;;;;5034883;28;20957;-59
2022/12/10 00:14:08;;;;;;;28.20;24.03;;;2.90;99.90;;;;;;5034717;28;20450;-59
2022/12/10 00:16:36;;;;;;;32.83;22.60;;;2.80;99.90;;;;;;5034428;28;20465;-59
2022/12/10 00:19:04;;;;;;;32.00;21.90;;;2.80;99.90;;;;;;5034378;28;21001;-59
2022/12/10 00:21:33;;;;;;;27.60;19.90;;;2.90;99.90;;;;;;5034603;28;20798;-59
2022/12/10 00:24:04;;;;;;;28.50;21.97;;;2.90;99.90;;;;;;5034634;28;20472;-59
2022/12/10 00:26:33;;;;;;;27.33;21.30;;;2.90;99.90;;;;;;5034533;28;20477;-58
2022/12/10 00:29:02;;;;;;;33.67;22.33;;;2.90;99.90;;;;;;5034140;28;20937;-58
2022/12/10 00:31:32;;;;;;;30.10;21.73;;;2.90;99.90;;;;;;5034580;28;20462;-59
2022/12/10 00:34:02;;;;;;;29.10;23.60;;;3.00;99.90;;;;;;5033993;28;20442;-59
2022/12/10 00:36:31;;;;;;;26.47;20.53;;;3.00;99.90;;;;;;5034231;28;20478;-59
2022/12/10 00:38:59;;;;;;;29.27;21.97;;;3.00;99.90;;;;;;5033969;28;21054;-59
2022/12/10 00:41:28;;;;;;;23.70;19.30;;;3.10;99.90;;;;;;5033971;28;20456;-59
2022/12/10 00:43:56;;;;;;;26.63;20.17;;;3.10;99.90;;;;;;5033801;28;20952;-59
2022/12/10 00:46:23;;;;;;;42.40;20.80;;;3.00;99.90;;;;;;5033846;28;20466;-59
2022/12/10 00:48:50;;;;;;;30.23;21.63;;;3.10;99.90;;;;;;5034031;28;20446;-59
2022/12/10 00:51:20;;;;;;;27.37;20.97;;;3.10;99.90;;;;;;5034103;28;20933;-58
2022/12/10 00:53:49;;;;;;;27.73;20.27;;;3.00;99.90;;;;;;5033714;28;20446;-58
2022/12/10 00:56:21;;;;;;;24.37;21.17;;;3.00;99.90;;;;;;5034132;28;20477;-58
2022/12/10 00:58:50;;;;;;;31.67;22.27;;;3.10;99.90;;;;;;5033554;28;20476;-58
2022/12/10 01:01:21;;;;;;;30.33;23.20;;;3.00;99.90;;;;;;5033857;28;20461;-59
2022/12/10 01:03:50;;;;;;;27.50;20.40;;;3.10;99.90;;;;;;5033601;28;20810;-59
2022/12/10 01:06:20;;;;;;;28.13;20.73;;;3.10;99.90;;;;;;5033342;28;20486;-58
2022/12/10 01:08:48;;;;;;;25.03;20.53;;;3.10;99.90;;;;;;5033405;28;20533;-58
2022/12/10 01:11:19;;;;;;;32.00;21.97;;;3.10;99.90;;;;;;5033539;28;20936;-59
2022/12/10 01:13:48;;;;;;;33.23;22.30;;;3.00;99.90;;;;;;5033701;28;20484;-59
2022/12/10 01:16:19;;;;;;;26.30;20.07;;;3.10;99.90;;;;;;5033723;28;20462;-59
2022/12/10 01:18:47;;;;;;;33.27;22.90;;;3.10;99.90;;;;;;5033608;28;20831;-59
2022/12/10 01:21:17;;;;;;;32.93;21.80;;;3.00;99.90;;;;;;5033417;28;20446;-60
2022/12/10 01:23:46;;;;;;;29.70;21.47;;;3.10;99.90;;;;;;5033524;28;20446;-60
2022/12/10 01:26:15;;;;;;;24.50;19.47;;;3.10;99.90;;;;;;5033369;28;20481;-60
2022/12/10 01:28:43;;;;;;;26.77;21.83;;;3.10;99.90;;;;;;5033274;28;20438;-61
2022/12/10 01:31:13;;;;;;;29.10;23.63;;;3.10;99.90;;;;;;5033740;28;20457;-59
2022/12/10 01:33:42;;;;;;;28.57;22.57;;;3.10;99.90;;;;;;5033078;28;20450;-60
2022/12/10 01:36:11;;;;;;;28.17;21.60;;;3.00;99.90;;;;;;5033129;28;20497;-61
2022/12/10 01:38:39;;;;;;;29.63;19.77;;;3.00;99.90;;;;;;5032893;28;20457;-59
2022/12/10 01:41:08;;;;;;;27.07;20.80;;;3.00;99.90;;;;;;5033161;28;20446;-61
2022/12/10 01:43:55;;;;;;;24.77;19.70;;;3.10;99.90;;;;;;5033112;28;20457;-60
2022/12/10 01:46:27;;;;;;;29.20;21.77;;;3.00;99.90;;;;;;5033386;28;20470;-60
2022/12/10 01:48:56;;;;;;;25.10;20.10;;;3.00;99.90;;;;;;5033409;28;20454;-61
2022/12/10 01:51:26;;;;;;;33.50;22.43;;;3.00;99.90;;;;;;5032967;28;20452;-61
2022/12/10 01:53:54;;;;;;;28.73;20.20;;;3.00;99.90;;;;;;5033070;28;20488;-59
2022/12/10 01:56:22;;;;;;;27.30;21.27;;;3.00;99.90;;;;;;5033000;28;20470;-59
2022/12/10 01:58:51;;;;;;;26.60;19.03;;;3.00;99.90;;;;;;5033355;28;20553;-59
2022/12/10 02:01:26;;;;;;;27.53;21.33;;;3.00;99.90;;;;;;5033430;28;20916;-59
2022/12/10 02:04:18;;;;;;;26.40;19.87;;;3.00;99.90;;;;;;5033463;28;20429;-60
2022/12/10 02:06:51;;;;;;;24.40;18.23;;;3.00;99.90;;;;;;5032853;28;20547;-61
2022/12/10 02:09:26;;;;;;;24.30;20.00;;;2.90;99.90;;;;;;5032815;28;20437;-60
2022/12/10 02:12:03;;;;;;;26.17;20.57;;;2.90;99.90;;;;;;5036179;28;20794;-60
2022/12/10 02:14:37;;;;;;;28.17;22.07;;;3.00;99.90;;;;;;5036889;28;20438;-60
2022/12/10 02:17:12;;;;;;;30.40;21.43;;;3.00;99.90;;;;;;5036650;28;20489;-61
2022/12/10 02:19:57;;;;;;;32.63;22.13;;;3.00;99.90;;;;;;5037000;28;20469;-60
2022/12/10 02:22:27;;;;;;;23.07;18.53;;;3.00;99.90;;;;;;5036665;28;20444;-60
2022/12/10 02:24:56;;;;;;;30.43;21.27;;;3.00;99.90;;;;;;5037103;28;20458;-60
2022/12/10 02:27:30;;;;;;;25.53;20.10;;;3.00;99.90;;;;;;5036873;28;20461;-60
2022/12/10 02:30:01;;;;;;;28.13;19.40;;;3.00;99.90;;;;;;5036748;28;20457;-59
2022/12/10 02:32:34;;;;;;;26.33;19.83;;;3.00;99.90;;;;;;5036475;28;20446;-60
2022/12/10 02:35:06;;;;;;;29.63;20.73;;;3.00;99.90;;;;;;5036334;28;20434;-59
2022/12/10 02:37:38;;;;;;;31.27;21.23;;;3.00;99.90;;;;;;5036428;28;20430;-60
2022/12/10 02:40:10;;;;;;;22.83;20.30;;;3.00;99.90;;;;;;5036520;28;20788;-60
2022/12/10 02:42:43;;;;;;;31.30;21.10;;;2.90;99.90;;;;;;5036376;28;20435;-61
2022/12/10 02:45:13;;;;;;;34.60;21.27;;;2.90;99.90;;;;;;5036304;28;20441;-61
2022/12/10 02:47:41;;;;;;;25.57;19.77;;;3.00;99.90;;;;;;5036403;28;20446;-60
2022/12/10 02:50:10;;;;;;;25.70;19.63;;;2.90;99.90;;;;;;5036053;28;20453;-60
2022/12/10 02:52:38;;;;;;;28.27;19.57;;;2.80;99.90;;;;;;5036409;28;20474;-61
2022/12/10 02:55:06;;;;;;;30.50;21.50;;;2.70;99.90;;;;;;5036148;28;20442;-60
2022/12/10 02:57:40;;;;;;;25.17;19.50;;;2.80;99.90;;;;;;5036071;28;20456;-59
2022/12/10 03:00:16;;;;;;;30.27;20.07;;;2.70;99.90;;;;;;5036289;28;20488;-59
2022/12/10 03:02:59;;;;;;;25.63;19.87;;;2.70;99.90;;;;;;5036179;28;20782;-59
2022/12/10 03:05:38;;;;;;;24.67;20.80;;;2.70;99.90;;;;;;5035937;28;20516;-59
2022/12/10 03:08:11;;;;;;;28.53;19.87;;;2.60;99.90;;;;;;5035844;28;20437;-59
2022/12/10 03:10:45;;;;;;;26.47;20.13;;;2.60;99.90;;;;;;5035681;28;20423;-59
2022/12/10 03:13:16;;;;;;;27.37;19.70;;;2.60;99.90;;;;;;5035765;28;20906;-59
2022/12/10 03:15:47;;;;;;;25.60;20.40;;;2.70;99.90;;;;;;5035801;28;20462;-59
2022/12/10 03:18:18;;;;;;;32.47;23.13;;;2.70;99.90;;;;;;5035649;28;20443;-59
2022/12/10 03:20:47;;;;;;;27.27;20.10;;;2.60;99.90;;;;;;5035764;28;20543;-60
2022/12/10 03:23:18;;;;;;;33.97;21.10;;;2.60;99.90;;;;;;5035112;28;20454;-59
2022/12/10 03:25:47;;;;;;;26.77;21.40;;;2.60;99.90;;;;;;5035379;28;20470;-60
2022/12/10 03:28:16;;;;;;;28.20;20.30;;;2.70;99.90;;;;;;5035845;28;20454;-59
2022/12/10 03:30:48;;;;;;;27.87;20.00;;;2.80;99.90;;;;;;5035613;28;20454;-59
2022/12/10 03:33:15;;;;;;;31.13;20.57;;;2.80;99.90;;;;;;5035359;28;20437;-59
2022/12/10 03:35:43;;;;;;;23.50;19.40;;;2.70;99.90;;;;;;5035447;28;20556;-60
2022/12/10 03:38:11;;;;;;;31.80;19.50;;;2.60;99.90;;;;;;5035277;28;20446;-59
2022/12/10 03:40:39;;;;;;;29.60;20.30;;;2.60;99.90;;;;;;5035043;28;20482;-60
2022/12/10 03:43:06;;;;;;;26.17;19.60;;;2.70;99.90;;;;;;5035511;28;20453;-59
2022/12/10 03:45:33;;;;;;;27.43;21.20;;;2.70;99.90;;;;;;5035238;28;20470;-60
2022/12/10 03:48:02;;;;;;;34.23;22.33;;;2.70;99.90;;;;;;5035427;28;20596;-60
2022/12/10 03:50:30;;;;;;;24.47;18.40;;;2.70;99.90;;;;;;5035279;28;20446;-60
2022/12/10 03:52:57;;;;;;;29.93;19.50;;;2.70;99.90;;;;;;5034994;28;20452;-60
2022/12/10 03:55:24;;;;;;;31.77;21.23;;;2.60;99.90;;;;;;5034759;28;20466;-61
2022/12/10 03:57:52;;;;;;;29.63;21.23;;;2.70;99.90;;;;;;5034859;28;20443;-61
2022/12/10 04:00:19;;;;;;;30.57;20.77;;;2.80;99.90;;;;;;5034481;28;20485;-60
2022/12/10 04:02:47;;;;;;;27.17;21.30;;;2.70;99.90;;;;;;5034832;28;20953;-60
2022/12/10 04:05:16;;;;;;;25.83;20.17;;;2.80;99.90;;;;;;5034624;28;20476;-60
2022/12/10 04:07:43;;;;;;;23.07;18.40;;;2.90;99.90;;;;;;5034736;28;20446;-60
2022/12/10 04:10:11;;;;;;;28.63;20.67;;;2.80;99.90;;;;;;5034569;28;20450;-61
2022/12/10 04:12:38;;;;;;;23.83;19.50;;;2.70;99.90;;;;;;5034591;28;20446;-61
2022/12/10 04:17:52;;;;;;;24.87;19.50;;;2.60;99.90;;;;;;5034747;28;20465;-60
2022/12/10 04:28:40;;;;;;;27.63;20.50;;;2.30;99.90;;;;;;5034556;28;20503;-61
2022/12/10 04:31:08;;;;;;;25.90;18.90;;;2.30;99.90;;;;;;5034637;28;20452;-60
2022/12/10 04:33:35;;;;;;;27.10;19.80;;;2.30;99.90;;;;;;5034195;28;20836;-60
2022/12/10 04:36:04;;;;;;;23.90;19.67;;;2.20;99.90;;;;;;5033334;28;20476;-60
2022/12/10 04:38:32;;;;;;;28.23;19.13;;;2.20;99.90;;;;;;5034380;28;20453;-59
2022/12/10 04:40:59;;;;;;;24.20;19.70;;;2.30;99.90;;;;;;5033996;28;20485;-59
2022/12/10 04:43:27;;;;;;;27.50;21.53;;;2.40;99.90;;;;;;5034024;28;20450;-59
2022/12/10 04:45:57;;;;;;;24.90;20.97;;;2.50;99.90;;;;;;5033798;28;20476;-60
2022/12/10 04:48:24;;;;;;;28.50;20.63;;;2.50;99.90;;;;;;5034177;28;20451;-60
2022/12/10 04:50:52;;;;;;;26.47;20.17;;;2.40;99.90;;;;;;5033774;28;20454;-60
2022/12/10 04:53:22;;;;;;;27.03;19.13;;;2.40;99.90;;;;;;5033876;28;20955;-60
2022/12/10 04:55:49;;;;;;;24.00;18.57;;;2.30;99.90;;;;;;5033658;28;20469;-59
2022/12/10 04:58:17;;;;;;;28.87;21.63;;;2.30;99.90;;;;;;5034023;28;20446;-59
2022/12/10 05:00:44;;;;;;;27.63;21.13;;;2.30;99.90;;;;;;5033766;28;20482;-59
2022/12/10 05:03:12;;;;;;;25.97;21.77;;;2.20;99.90;;;;;;5034063;28;20460;-59
2022/12/10 05:05:39;;;;;;;26.63;20.10;;;2.10;99.90;;;;;;5033323;28;20486;-59
2022/12/10 05:08:07;;;;;;;27.57;20.00;;;2.20;99.90;;;;;;5033909;28;20431;-59
2022/12/10 05:10:37;;;;;;;27.53;20.90;;;2.30;99.90;;;;;;5033488;28;20489;-59
2022/12/10 05:13:04;;;;;;;32.67;22.40;;;2.40;99.90;;;;;;5033905;28;20427;-59
2022/12/10 05:15:32;;;;;;;26.30;20.17;;;2.40;99.90;;;;;;5033308;28;20485;-59
2022/12/10 05:17:59;;;;;;;26.97;20.07;;;2.40;99.90;;;;;;5033479;28;20457;-59
2022/12/10 05:20:27;;;;;;;30.30;21.60;;;2.40;99.90;;;;;;5033264;28;21000;-58
2022/12/10 05:25:59;;;;;;;29.33;21.73;;;2.40;99.90;;;;;;4992211;28;20965;-59
2022/12/10 05:28:27;;;;;;;29.30;19.97;;;2.30;99.90;;;;;;5025781;28;20461;-59
2022/12/10 05:30:55;;;;;;;26.77;21.17;;;2.20;99.90;;;;;;5033609;28;20450;-59
2022/12/10 05:33:22;;;;;;;27.63;21.47;;;2.30;99.90;;;;;;5033128;28;20815;-59
2022/12/10 05:35:54;;;;;;;29.97;22.03;;;2.20;99.90;;;;;;5033196;28;20466;-59
2022/12/10 05:38:22;;;;;;;26.57;20.90;;;2.30;99.90;;;;;;5033300;28;20446;-59
2022/12/10 05:40:51;;;;;;;28.83;21.33;;;2.20;99.90;;;;;;5033189;28;20522;-59
2022/12/10 05:43:18;;;;;;;27.77;20.60;;;2.30;99.90;;;;;;5033374;28;20808;-59
2022/12/10 05:45:46;;;;;;;28.57;19.20;;;2.30;99.90;;;;;;5032670;28;20473;-60
2022/12/10 05:48:15;;;;;;;29.33;22.73;;;2.30;99.90;;;;;;5032969;28;20952;-59
2022/12/10 05:50:43;;;;;;;28.43;20.53;;;2.20;99.90;;;;;;5033093;28;20452;-60
2022/12/10 05:53:13;;;;;;;26.40;19.60;;;2.20;99.90;;;;;;5033273;28;20450;-59
2022/12/10 05:55:41;;;;;;;25.83;19.83;;;2.30;99.90;;;;;;5033379;28;20824;-60
2022/12/10 05:58:10;;;;;;;31.70;21.07;;;2.30;99.90;;;;;;5033218;28;20454;-59
2022/12/10 06:00:40;;;;;;;25.80;20.70;;;2.30;99.90;;;;;;5033027;28;20490;-59
2022/12/10 06:03:08;;;;;;;31.47;21.93;;;2.30;99.90;;;;;;5033179;28;20430;-59
2022/12/10 06:05:41;;;;;;;28.60;21.43;;;2.30;99.90;;;;;;5031892;28;20490;-59
2022/12/10 06:08:09;;;;;;;31.30;22.33;;;2.30;99.90;;;;;;5033201;28;20430;-59
2022/12/10 06:10:36;;;;;;;28.50;20.47;;;2.20;99.90;;;;;;5033201;28;20442;-59
2022/12/10 06:13:04;;;;;;;33.10;21.30;;;2.20;99.90;;;;;;5033024;28;20450;-59
2022/12/10 06:15:33;;;;;;;30.90;22.73;;;2.00;99.90;;;;;;5033115;28;20473;-59
2022/12/10 06:18:00;;;;;;;31.20;20.97;;;1.90;99.90;;;;;;5032731;28;20450;-59
2022/12/10 06:20:28;;;;;;;32.93;22.10;;;1.80;99.90;;;;;;5033196;28;20840;-59
2022/12/10 06:22:55;;;;;;;30.63;22.50;;;1.70;99.90;;;;;;5033030;28;20454;-59
2022/12/10 06:25:23;;;;;;;32.97;21.90;;;1.70;99.90;;;;;;5032725;28;20466;-58
2022/12/10 06:27:50;;;;;;;27.70;20.73;;;1.80;99.90;;;;;;5032605;28;20454;-59
2022/12/10 06:30:18;;;;;;;32.87;23.30;;;2.00;99.90;;;;;;5032925;28;20464;-59
2022/12/10 06:32:47;;;;;;;29.30;20.47;;;2.00;99.90;;;;;;5032544;28;20461;-59
2022/12/10 06:35:14;;;;;;;26.40;20.60;;;2.10;99.90;;;;;;5032564;28;20450;-59
2022/12/10 06:37:41;;;;;;;29.20;21.53;;;2.20;99.90;;;;;;5032407;28;20446;-59
2022/12/10 06:40:09;;;;;;;27.07;19.47;;;2.30;99.90;;;;;;5032933;28;20446;-59
2022/12/10 06:42:37;;;;;;;27.37;19.70;;;2.20;99.90;;;;;;5032617;28;20446;-58
2022/12/10 06:45:05;;;;;;;28.70;20.53;;;2.20;99.90;;;;;;5032868;28;20441;-58
2022/12/10 06:47:33;;;;;;;25.63;20.60;;;2.00;99.90;;;;;;5032681;28;20453;-59
2022/12/10 06:50:02;;;;;;;29.97;21.37;;;1.90;99.90;;;;;;5032813;28;20450;-59
2022/12/10 06:52:29;;;;;;;28.73;20.10;;;1.90;99.90;;;;;;5032584;28;20457;-59
2022/12/10 06:54:56;;;;;;;27.80;21.47;;;1.70;99.90;;;;;;5032242;28;20446;-59
2022/12/10 06:57:24;;;;;;;34.33;22.87;;;1.90;99.90;;;;;;5032743;28;20929;-59
2022/12/10 06:59:51;;;;;;;28.37;21.17;;;2.00;99.90;;;;;;5036190;28;20465;-59
2022/12/10 07:02:19;;;;;;;27.50;21.13;;;2.10;99.90;;;;;;5035937;28;20473;-59
2022/12/10 07:04:46;;;;;;;29.43;21.50;;;2.10;99.90;;;;;;5035623;28;20456;-59
2022/12/10 07:07:15;;;;;;;25.50;19.90;;;2.00;99.90;;;;;;5035573;28;20481;-59
2022/12/10 07:09:43;;;;;;;26.57;20.53;;;1.90;99.90;;;;;;5035742;28;20450;-59
2022/12/10 07:12:10;;;;;;;31.33;22.70;;;2.10;99.90;;;;;;5035820;28;20450;-59
2022/12/10 07:14:38;;;;;;;36.20;22.33;;;2.00;99.90;;;;;;5035861;28;20481;-59
2022/12/10 07:17:05;;;;;;;25.67;19.57;;;1.80;99.90;;;;;;5035687;28;20470;-59
2022/12/10 07:19:33;;;;;;;23.40;20.87;;;1.80;99.90;;;;;;5035813;28;20450;-59
2022/12/10 07:22:00;;;;;;;29.00;21.00;;;1.80;99.90;;;;;;5035555;28;20482;-59
2022/12/10 07:24:29;;;;;;;24.83;19.83;;;1.70;99.90;;;;;;5035704;28;20455;-60
2022/12/10 07:26:57;;;;;;;24.70;19.30;;;1.70;99.90;;;;;;5035812;28;20470;-59
2022/12/10 07:29:26;;;;;;;28.20;22.00;;;1.80;99.90;;;;;;5035593;28;20454;-59
2022/12/10 07:31:54;;;;;;;30.20;21.63;;;1.70;99.90;;;;;;5035732;28;20747;-59
2022/12/10 07:34:21;;;;;;;31.57;21.57;;;1.70;99.90;;;;;;5035207;28;20502;-59
2022/12/10 07:36:49;;;;;;;28.70;21.80;;;1.80;99.90;;;;;;5035267;28;20472;-59
2022/12/10 07:39:18;;;;;;;26.00;21.20;;;2.00;99.90;;;;;;5035086;28;20450;-59
2022/12/10 07:41:49;;;;;;;31.50;20.83;;;2.00;99.90;;;;;;5035467;28;20482;-59
2022/12/10 07:44:18;;;;;;;22.70;19.43;;;1.80;99.90;;;;;;5035059;28;20435;-59
2022/12/10 07:46:46;;;;;;;33.90;23.47;;;1.70;99.90;;;;;;5035175;28;20477;-59
2022/12/10 07:49:13;;;;;;;34.60;21.83;;;1.70;99.90;;;;;;5035129;28;20446;-58
2022/12/10 07:51:41;;;;;;;30.00;23.77;;;1.60;99.90;;;;;;5035205;28;20454;-60
2022/12/10 07:54:08;;;;;;;25.57;20.23;;;1.70;99.90;;;;;;5034788;28;20454;-62
2022/12/10 07:56:35;;;;;;;32.23;21.60;;;1.70;99.90;;;;;;5034837;28;20472;-58
2022/12/10 07:59:04;;;;;;;35.80;22.97;;;1.90;99.90;;;;;;5034719;28;20454;-58
2022/12/10 08:01:32;;;;;;;28.27;20.60;;;2.00;99.90;;;;;;5034638;28;20490;-60
2022/12/10 08:04:00;;;;;;;27.03;21.07;;;2.10;99.90;;;;;;5034696;28;20457;-58
2022/12/10 08:06:28;;;;;;;29.00;21.00;;;2.00;99.90;;;;;;5034458;28;20577;-59
2022/12/10 08:08:56;;;;;;;29.30;22.17;;;1.80;99.90;;;;;;5034117;28;20925;-60
2022/12/10 08:11:24;;;;;;;25.00;21.63;;;1.70;99.90;;;;;;5034594;28;20457;-60
2022/12/10 08:13:52;;;;;;;28.07;23.07;;;1.80;99.90;;;;;;5034177;28;20459;-58
2022/12/10 08:16:24;;;;;;;31.80;23.83;;;1.90;99.90;;;;;;5034487;28;20505;-58
2022/12/10 08:18:52;;;;;;;29.17;21.37;;;2.00;99.90;;;;;;5034902;28;20453;-58
2022/12/10 08:21:22;;;;;;;40.73;23.30;;;2.10;99.90;;;;;;5033449;28;20493;-58
2022/12/10 08:23:49;;;;;;;27.53;20.77;;;2.20;99.90;;;;;;5033445;28;20454;-59
2022/12/10 08:26:20;;;;;;;28.80;22.17;;;2.20;99.90;;;;;;5034051;28;20470;-58
2022/12/10 08:28:49;;;;;;;28.53;21.20;;;2.20;99.90;;;;;;5034620;28;20430;-58
2022/12/10 08:31:21;;;;;;;31.07;22.70;;;2.30;99.90;;;;;;5033894;28;20452;-58
2022/12/10 08:33:49;;;;;;;29.50;21.13;;;2.30;99.90;;;;;;5032313;28;20469;-58
2022/12/10 08:36:18;;;;;;;32.50;22.07;;;2.30;99.90;;;;;;5033099;28;20482;-58
2022/12/10 08:38:46;;;;;;;25.80;21.80;;;2.30;99.90;;;;;;5033733;28;20784;-58
2022/12/10 08:41:16;;;;;;;24.80;19.87;;;2.40;99.90;;;;;;5026972;28;20488;-58
2022/12/10 08:43:44;;;;;;;31.23;21.93;;;2.40;99.90;;;;;;5023237;28;20526;-58
2022/12/10 08:46:12;;;;;;;30.93;21.30;;;2.50;99.90;;;;;;5018985;28;20487;-59
2022/12/10 08:48:41;;;;;;;31.57;20.80;;;2.40;99.90;;;;;;5027994;28;20457;-59
2022/12/10 08:51:11;;;;;;;36.00;22.60;;;2.30;99.90;;;;;;5019872;28;20942;-58
2022/12/10 08:53:39;;;;;;;28.00;20.73;;;2.30;99.90;;;;;;5028444;28;20472;-57
2022/12/10 08:56:06;;;;;;;28.17;20.77;;;2.50;99.90;;;;;;5027007;28;20483;-59
2022/12/10 08:58:34;;;;;;;28.53;21.37;;;2.50;99.90;;;;;;5027590;28;20465;-59
2022/12/10 09:01:06;;;;;;;31.40;22.47;;;2.60;99.90;;;;;;5022029;28;20940;-59
2022/12/10 09:03:33;;;;;;;34.57;21.77;;;2.70;99.90;;;;;;5028337;28;20454;-57
2022/12/10 09:06:07;;;;;;;34.53;24.50;;;2.60;99.90;;;;;;5024924;28;20492;-57
2022/12/10 09:08:36;;;;;;;25.93;21.00;;;2.50;99.90;;;;;;5025945;28;20450;-57
2022/12/10 09:11:09;;;;;;;28.80;22.90;;;2.60;99.90;;;;;;5020137;28;20482;-57
2022/12/10 09:13:37;;;;;;;30.90;21.60;;;2.40;99.90;;;;;;5020870;28;20582;-56
2022/12/10 09:16:05;;;;;;;32.70;22.17;;;2.40;99.90;;;;;;5014843;28;20527;-56
2022/12/10 09:18:32;;;;;;;32.70;23.87;;;2.40;99.90;;;;;;5020330;28;20471;-54
2022/12/10 09:21:00;;;;;;;26.80;21.17;;;2.30;99.90;;;;;;5022930;28;20462;-55
2022/12/10 09:23:30;;;;;;;31.77;23.10;;;2.20;99.90;;;;;;5020307;28;20462;-54
2022/12/10 09:25:58;;;;;;;31.30;22.20;;;2.10;99.90;;;;;;5018433;28;20482;-58
2022/12/10 09:28:25;;;;;;;29.80;21.13;;;2.10;99.90;;;;;;5018991;28;20942;-52
2022/12/10 09:31:01;;;;;;;31.47;22.50;;;2.30;99.90;;;;;;5021426;28;20474;-58
2022/12/10 09:33:30;;;;;;;32.60;22.83;;;2.30;99.90;;;;;;5021163;28;20558;-56
2022/12/10 09:35:57;;;;;;;32.80;20.27;;;2.10;99.90;;;;;;5018733;28;20584;-56
2022/12/10 09:38:25;;;;;;;30.40;21.53;;;2.10;99.90;;;;;;5018962;28;20461;-58
2022/12/10 09:41:00;;;;;;;31.00;22.30;;;2.10;99.90;;;;;;5018706;28;20499;-56
2022/12/10 09:43:38;;;;;;;29.43;21.90;;;2.00;99.90;;;;;;5020191;28;20453;-55
2022/12/10 09:46:13;;;;;;;30.70;21.57;;;2.20;99.90;;;;;;5020460;28;20989;-59
2022/12/10 09:48:53;;;;;;;27.90;20.87;;;2.20;99.90;;;;;;5019861;28;20455;-56
2022/12/10 09:51:24;;;;;;;28.27;22.87;;;2.30;99.90;;;;;;5021190;28;20458;-57
2022/12/10 09:53:58;;;;;;;28.43;20.60;;;2.10;99.90;;;;;;5018206;28;20447;-52
2022/12/10 09:56:30;;;;;;;31.50;22.23;;;2.10;99.90;;;;;;5017902;28;20977;-57
2022/12/10 09:59:06;;;;;;;27.10;21.20;;;2.00;99.90;;;;;;5021974;28;20489;-61
2022/12/10 10:01:35;;;;;;;30.37;23.20;;;2.00;99.90;;;;;;5017924;28;20496;-57
2022/12/10 10:04:05;;;;;;;31.30;22.40;;;2.20;99.90;;;;;;5016666;28;20462;-58
2022/12/10 10:06:33;;;;;;;32.90;23.53;;;2.20;99.90;;;;;;5018879;28;20491;-60
2022/12/10 10:09:03;;;;;;;26.87;22.47;;;2.20;99.90;;;;;;5023662;28;20489;-69
2022/12/10 10:11:34;;;;;;;30.43;22.13;;;2.10;99.90;;;;;;5016222;28;20461;-60
2022/12/10 10:14:10;;;;;;;27.93;23.10;;;2.20;99.90;;;;;;5021232;28;20493;-59
2022/12/10 10:16:45;;;;;;;32.80;20.90;;;2.20;99.90;;;;;;5019482;28;20485;-65
2022/12/10 10:19:16;;;;;;;34.00;22.30;;;2.20;99.90;;;;;;5019002;28;20480;-61
2022/12/10 10:21:45;;;;;;;31.07;21.97;;;2.30;99.90;;;;;;5018132;28;20481;-58
2022/12/10 10:24:16;;;;;;;26.57;20.60;;;2.40;99.90;;;;;;5017913;28;20471;-59
2022/12/10 10:26:46;;;;;;;27.73;19.53;;;2.40;99.90;;;;;;5017226;28;20477;-62
2022/12/10 10:29:17;;;;;;;35.33;21.17;;;2.40;99.90;;;;;;5020207;28;20454;-58
2022/12/10 10:31:45;;;;;;;27.87;21.97;;;2.40;99.90;;;;;;5018881;28;20447;-57
2022/12/10 10:34:17;;;;;;;30.10;21.27;;;2.40;99.90;;;;;;5022155;28;20461;-57
2022/12/10 10:36:45;;;;;;;27.73;19.80;;;2.40;99.90;;;;;;5022837;28;20479;-58
2022/12/10 10:39:26;;;;;;;32.10;21.57;;;2.40;99.90;;;;;;5024308;28;20462;-57
2022/12/10 10:41:57;;;;;;;28.27;21.83;;;2.50;99.90;;;;;;5020871;28;20472;-59
2022/12/10 10:44:28;;;;;;;28.10;21.50;;;2.40;99.90;;;;;;5024278;28;20453;-60
2022/12/10 10:46:56;;;;;;;27.17;22.20;;;2.50;99.90;;;;;;5021295;28;20482;-56
2022/12/10 10:49:26;;;;;;;28.67;20.47;;;2.60;99.90;;;;;;5024145;28;20462;-58
2022/12/10 10:51:55;;;;;;;26.17;20.23;;;2.60;99.90;;;;;;5021984;28;20829;-56
2022/12/10 10:54:35;;;;;;;27.90;20.53;;;2.60;99.90;;;;;;5021628;28;20528;-58
2022/12/10 10:57:14;;;;;;;24.40;18.77;;;2.70;99.90;;;;;;5020574;28;20470;-57
2022/12/10 10:59:42;;;;;;;28.50;19.30;;;2.60;99.90;;;;;;5021649;28;20560;-56
2022/12/10 11:02:20;;;;;;;32.63;22.00;;;2.50;99.90;;;;;;5021730;28;20477;-62
2022/12/10 11:04:50;;;;;;;28.73;20.07;;;2.50;99.90;;;;;;5025005;28;20989;-61
2022/12/10 11:07:26;;;;;;;35.43;22.47;;;2.50;99.90;;;;;;5019361;28;20497;-60
2022/12/10 11:09:55;;;;;;;28.57;20.70;;;2.60;99.90;;;;;;5025480;28;20482;-60
2022/12/10 11:12:31;;;;;;;25.90;21.30;;;2.70;99.90;;;;;;5024542;28;20486;-62
2022/12/10 11:14:59;;;;;;;23.47;19.07;;;3.10;99.90;;;;;;5021114;28;20459;-66
2022/12/10 11:17:28;;;;;;;27.90;20.27;;;3.30;99.90;;;;;;5020864;28;20458;-58
2022/12/10 11:19:58;;;;;;;25.37;19.53;;;3.30;99.90;;;;;;5022122;28;20945;-59
2022/12/10 11:22:28;;;;;;;29.43;21.77;;;3.30;99.90;;;;;;5021604;28;20883;-57
2022/12/10 11:24:58;;;;;;;28.00;20.93;;;3.00;99.90;;;;;;5023355;28;20501;-57
2022/12/10 11:27:52;;;;;;;26.10;19.43;;;3.50;99.90;;;;;;5019442;28;20474;-59
2022/12/10 11:30:23;;;;;;;20.77;17.03;;;3.80;99.90;;;;;;5025485;28;20658;-61
2022/12/10 11:33:10;;;;;;;23.23;17.17;;;4.20;99.90;;;;;;5024051;28;20443;-60
2022/12/10 11:35:51;;;;;;;23.10;18.40;;;3.70;99.90;;;;;;5024184;28;20483;-58
2022/12/10 11:38:25;;;;;;;24.87;18.63;;;3.90;99.90;;;;;;5022667;28;21011;-55
2022/12/10 11:41:01;;;;;;;24.13;18.20;;;3.60;99.90;;;;;;5021022;28;20481;-55
2022/12/10 11:43:45;;;;;;;25.47;19.30;;;3.90;99.90;;;;;;5019342;28;20474;-57
2022/12/10 11:46:27;;;;;;;24.10;19.43;;;4.10;99.90;;;;;;5029093;28;20478;-58
2022/12/10 11:49:10;;;;;;;23.70;17.60;;;4.00;99.90;;;;;;5034847;28;20439;-56
2022/12/10 11:51:42;;;;;;;22.10;17.77;;;4.10;99.90;;;;;;5034598;28;20430;-55
2022/12/10 11:54:25;;;;;;;24.60;16.43;;;4.30;99.90;;;;;;5034775;28;20431;-57
2022/12/10 11:57:00;;;;;;;23.30;17.33;;;4.10;99.90;;;;;;5024125;28;21011;-56
2022/12/10 11:59:36;;;;;;;23.03;18.13;;;3.80;99.90;;;;;;5018017;28;20971;-56
2022/12/10 12:02:31;;;;;;;21.70;17.87;;;4.40;99.90;;;;;;5018914;28;20473;-56
2022/12/10 12:05:20;;;;;;;19.67;15.37;;;4.00;99.90;;;;;;5014852;28;20477;-56
2022/12/10 12:07:54;;;;;;;22.87;17.20;;;4.30;99.90;;;;;;5018219;28;20909;-57
2022/12/10 12:10:47;;;;;;;22.20;16.93;;;3.90;99.90;;;;;;5019017;28;20462;-57
2022/12/10 12:13:19;;;;;;;23.97;17.70;;;3.70;99.90;;;;;;5019842;28;20802;-56
2022/12/10 12:15:54;;;;;;;26.73;19.23;;;3.60;99.90;;;;;;5020494;28;20474;-55
2022/12/10 12:18:24;;;;;;;20.63;15.37;;;3.60;99.90;;;;;;5020855;28;20465;-58
2022/12/10 12:20:57;;;;;;;22.70;17.70;;;3.60;99.90;;;;;;5016397;28;20465;-56
2022/12/10 12:23:29;;;;;;;24.40;18.27;;;4.20;99.90;;;;;;5019884;28;20468;-56
2022/12/10 12:26:01;;;;;;;21.33;17.20;;;3.50;99.90;;;;;;5016774;28;20466;-56
2022/12/10 12:28:32;;;;;;;21.57;16.00;;;3.40;99.90;;;;;;5023516;28;20473;-55
2022/12/10 12:31:06;;;;;;;24.43;18.30;;;3.30;99.90;;;;;;5022467;28;20459;-54
2022/12/10 12:33:42;;;;;;;26.23;17.73;;;3.30;99.90;;;;;;5022750;28;20431;-55
2022/12/10 12:36:14;;;;;;;25.27;18.70;;;3.30;99.90;;;;;;5021462;28;20459;-55
2022/12/10 12:38:47;;;;;;;24.47;17.73;;;3.30;99.90;;;;;;5020646;28;20452;-55
2022/12/10 12:41:17;;;;;;;28.07;20.13;;;3.20;99.90;;;;;;5022228;28;20435;-54
2022/12/10 12:43:52;;;;;;;20.97;16.77;;;3.20;99.90;;;;;;5023917;28;20471;-55
2022/12/10 12:46:35;;;;;;;25.70;18.00;;;3.00;99.90;;;;;;5022465;28;20492;-55
2022/12/10 12:49:06;;;;;;;27.43;19.17;;;3.20;99.90;;;;;;5021443;28;20461;-55
2022/12/10 12:51:39;;;;;;;25.05;20.30;;;3.30;99.90;;;;;;5024140;28;20463;-57
2022/12/10 12:54:08;;;;;;;24.70;18.43;;;3.40;99.90;;;;;;5022113;28;20200;-55
2022/12/10 12:57:04;;;;;;;24.00;18.60;;;3.10;99.90;;;;;;5022495;28;20470;-57
2022/12/10 13:00:49;;;;;;;27.10;18.90;;;3.60;99.90;;;;;;5107385;27;20524;-76
2022/12/10 13:03:30;;;;;;;26.30;19.63;;;3.50;99.90;;;;;;5118559;28;20449;-77
2022/12/10 13:06:13;;;;;;;26.43;16.77;;;3.20;99.90;;;;;;5112058;28;20459;-77
2022/12/10 13:08:46;;;;;;;25.00;20.10;;;3.30;99.90;;;;;;5111094;28;20439;-80